Time;durP1;ratioP1;P1;durP2;ratioP2;P2;SDS_P1;SDS_P2;PMS_P1;PMS_P2;Temp;Humidity;BMP_temperature;BMP_pressure;BME280_temperature;BME280_humidity;BME280_pressure;Samples;Min_cycle;Max_cycle;Signal;HPM_P1;HPM_P2
2021/10/15 00:03:37;;;;;;;11.10;3.10;;;13.60;99.90;;;;;;20782975;28;20064;-45
2021/10/15 00:13:38;;;;;;;8.80;2.95;;;13.60;99.90;;;;;;20717082;28;20053;-45
2021/10/15 00:23:39;;;;;;;6.35;2.85;;;13.60;99.90;;;;;;20756935;28;20406;-46
2021/10/15 00:33:40;;;;;;;9.18;3.78;;;13.60;99.90;;;;;;20724776;28;20041;-45
2021/10/15 00:44:03;;;;;;;12.98;3.67;;;13.60;99.90;;;;;;20741376;28;20053;-45
2021/10/15 00:54:04;;;;;;;8.15;2.95;;;13.50;99.90;;;;;;20711623;28;20045;-46
2021/10/15 01:04:06;;;;;;;6.63;2.65;;;13.50;99.90;;;;;;20718799;28;20052;-45
2021/10/15 01:14:07;;;;;;;7.50;3.08;;;13.50;99.90;;;;;;20792379;28;20075;-45
2021/10/15 01:24:08;;;;;;;6.57;2.90;;;13.50;99.90;;;;;;20774902;28;20042;-45
2021/10/15 01:34:09;;;;;;;9.50;2.85;;;13.50;99.90;;;;;;20755219;28;20041;-45
2021/10/15 01:44:10;;;;;;;5.70;2.63;;;13.60;99.90;;;;;;20780020;28;20052;-45
2021/10/15 01:54:12;;;;;;;7.28;3.10;;;13.50;99.90;;;;;;20774550;28;20037;-45
2021/10/15 02:04:14;;;;;;;8.00;3.30;;;13.50;99.90;;;;;;20745929;28;20048;-45
2021/10/15 02:14:15;;;;;;;5.90;2.90;;;13.50;99.90;;;;;;20679947;28;20037;-45
2021/10/15 02:24:16;;;;;;;15.57;3.70;;;13.50;99.90;;;;;;20683025;28;20061;-46
2021/10/15 02:34:18;;;;;;;8.93;3.65;;;13.40;99.90;;;;;;20704907;28;20049;-46
2021/10/15 02:44:20;;;;;;;7.45;3.55;;;13.50;99.90;;;;;;20689339;28;20045;-46
2021/10/15 02:54:21;;;;;;;7.88;3.25;;;13.40;99.90;;;;;;20704727;28;20041;-46
2021/10/15 03:04:23;;;;;;;7.22;2.78;;;13.50;99.90;;;;;;20715288;28;20057;-45
2021/10/15 03:14:24;;;;;;;7.07;2.67;;;13.40;99.90;;;;;;20772320;28;20045;-45
2021/10/15 03:24:25;;;;;;;6.35;3.08;;;13.50;99.90;;;;;;20780472;28;20065;-45
2021/10/15 03:34:26;;;;;;;9.73;2.95;;;13.50;99.90;;;;;;20761662;28;20044;-46
2021/10/15 03:44:27;;;;;;;5.93;2.80;;;13.60;99.90;;;;;;20778009;28;20049;-46
2021/10/15 03:54:29;;;;;;;8.13;3.03;;;13.50;99.90;;;;;;20784124;28;20040;-45
2021/10/15 04:04:31;;;;;;;5.90;2.55;;;13.60;99.90;;;;;;20786864;28;20058;-46
2021/10/15 04:14:33;;;;;;;7.70;2.95;;;13.60;99.90;;;;;;20776622;28;20037;-45
2021/10/15 04:24:34;;;;;;;11.93;2.47;;;13.70;99.90;;;;;;20783959;28;20049;-46
2021/10/15 04:34:35;;;;;;;5.40;2.42;;;13.70;99.90;;;;;;20771299;28;20079;-45
2021/10/15 04:44:36;;;;;;;9.13;2.08;;;13.70;99.90;;;;;;20801741;28;20666;-45
2021/10/15 04:54:38;;;;;;;20.35;2.30;;;13.80;99.90;;;;;;20799413;28;20045;-45
2021/10/15 05:04:40;;;;;;;3.65;1.70;;;14.00;99.90;;;;;;20786583;28;20053;-45
2021/10/15 05:14:43;;;;;;;4.90;1.30;;;14.10;99.90;;;;;;20790858;28;20049;-45
2021/10/15 05:24:45;;;;;;;6.00;1.00;;;14.20;99.90;;;;;;20796192;28;20037;-45
2021/10/15 05:34:47;;;;;;;6.50;1.70;;;14.30;99.90;;;;;;20784876;28;20041;-45
2021/10/15 05:44:48;;;;;;;4.45;2.15;;;14.30;99.90;;;;;;20765501;28;20045;-45
2021/10/15 06:15:12;;;;;;;18.17;1.65;;;13.50;99.90;;;;;;20785266;28;20063;-45
2021/10/15 06:25:13;;;;;;;0.65;0.10;;;13.50;99.90;;;;;;20793481;28;20041;-47
2021/10/15 06:35:15;;;;;;;1.55;0.13;;;12.80;99.90;;;;;;20771167;28;20076;-46
2021/10/15 06:45:17;;;;;;;0.90;0.17;;;12.30;99.90;;;;;;20793932;28;20233;-45
2021/10/15 06:55:20;;;;;;;1.35;0.20;;;11.90;99.90;;;;;;20797066;28;20841;-45
2021/10/15 07:05:22;;;;;;;1.10;0.10;;;11.70;99.90;;;;;;20775902;28;20040;-45
2021/10/15 07:15:23;;;;;;;0.40;0.20;;;11.60;99.90;;;;;;20724391;28;20045;-45
2021/10/15 07:25:24;;;;;;;0.60;0.10;;;11.50;99.90;;;;;;20746687;28;20050;-45
2021/10/15 07:35:25;;;;;;;1.67;0.50;;;11.40;99.90;;;;;;20730545;28;20056;-45
2021/10/15 07:45:28;;;;;;;2.53;0.20;;;11.40;99.90;;;;;;20724452;28;20061;-45
2021/10/15 07:55:29;;;;;;;1.13;0.25;;;11.50;99.90;;;;;;20734591;28;20414;-45
2021/10/15 08:05:30;;;;;;;5.28;0.40;;;11.60;99.90;;;;;;20741961;28;20534;-45
2021/10/15 08:15:32;;;;;;;0.75;0.25;;;11.60;99.90;;;;;;20793496;28;20410;-45
2021/10/15 08:25:33;;;;;;;1.30;0.30;;;11.70;99.90;;;;;;20790077;28;20060;-45
2021/10/15 08:35:34;;;;;;;2.60;1.20;;;11.80;99.90;;;;;;20800525;28;20061;-45
2021/10/15 08:45:36;;;;;;;0.52;0.20;;;11.90;99.90;;;;;;20821148;28;20041;-45
2021/10/15 08:55:37;;;;;;;3.10;0.98;;;12.20;99.90;;;;;;20819984;28;20068;-45
2021/10/15 09:05:40;;;;;;;4.45;1.33;;;12.50;99.90;;;;;;20816597;28;20045;-45
2021/10/15 09:15:41;;;;;;;3.83;0.60;;;12.40;99.90;;;;;;20806980;28;20127;-45
2021/10/15 09:25:45;;;;;;;2.03;0.88;;;12.40;99.90;;;;;;20806966;28;20038;-45
2021/10/15 09:35:46;;;;;;;4.25;0.40;;;12.40;99.90;;;;;;20780354;28;22673;-45
2021/10/15 09:45:49;;;;;;;1.77;0.75;;;12.50;99.90;;;;;;20760949;28;20052;-45
2021/10/15 09:55:52;;;;;;;1.83;0.43;;;12.50;99.90;;;;;;20771742;28;20041;-45
2021/10/15 10:05:53;;;;;;;2.75;0.30;;;12.60;99.90;;;;;;20791637;28;20060;-45
2021/10/15 10:15:54;;;;;;;4.35;1.55;;;12.70;99.90;;;;;;20780868;28;20813;-45
2021/10/15 10:26:10;;;;;;;4.35;0.20;;;12.80;99.90;;;;;;20758222;28;20050;-45
2021/10/15 10:36:12;;;;;;;0.52;0.25;;;13.00;99.90;;;;;;20787318;28;20053;-45
2021/10/15 10:46:19;;;;;;;1.15;0.10;;;13.20;99.90;;;;;;20770545;28;20053;-45
2021/10/15 10:56:39;;;;;;;1.33;0.08;;;13.40;99.90;;;;;;20785539;28;20057;-45
2021/10/15 11:06:58;;;;;;;3.20;0.17;;;13.90;99.90;;;;;;20776021;28;20058;-45
2021/10/15 11:17:09;;;;;;;0.60;0.17;;;13.60;99.90;;;;;;20767164;28;20054;-45
2021/10/15 11:27:16;;;;;;;3.38;0.22;;;13.40;99.90;;;;;;20769421;28;20049;-45
2021/10/15 11:37:17;;;;;;;3.38;0.75;;;14.40;99.90;;;;;;20766637;28;20045;-45
2021/10/15 11:47:18;;;;;;;3.38;0.30;;;14.00;99.90;;;;;;20808080;28;20045;-45
2021/10/15 11:57:20;;;;;;;6.00;0.77;;;13.10;99.90;;;;;;20792675;28;20045;-45
2021/10/15 12:07:21;;;;;;;3.25;1.05;;;13.00;99.90;;;;;;20790537;28;20037;-45
2021/10/15 12:17:22;;;;;;;4.60;0.52;;;14.00;99.90;;;;;;20782543;28;20812;-45
2021/10/15 12:27:40;;;;;;;2.83;0.60;;;15.10;99.90;;;;;;20732918;28;20041;-45
2021/10/15 12:37:51;;;;;;;5.97;0.80;;;15.30;99.90;;;;;;20768946;28;20061;-45
2021/10/15 12:47:57;;;;;;;1.27;0.55;;;14.70;99.90;;;;;;20722264;28;20409;-45
2021/10/15 12:58:06;;;;;;;3.65;0.22;;;15.70;99.90;;;;;;20724405;28;20049;-45
2021/10/15 13:08:07;;;;;;;1.15;0.10;;;16.60;99.90;;;;;;20798734;28;20068;-45
2021/10/15 13:18:08;;;;;;;0.68;0.20;;;17.00;99.90;;;;;;20787938;28;20045;-46
2021/10/15 13:28:10;;;;;;;12.50;0.95;;;17.60;99.90;;;;;;20754274;28;20042;-46
2021/10/15 13:38:14;;;;;;;3.38;0.80;;;17.70;99.90;;;;;;20745965;28;20052;-46
2021/10/15 13:58:41;;;;;;;2.67;0.20;;;17.10;99.90;;;;;;20817205;28;19928;-46
2021/10/15 14:08:42;;;;;;;3.70;0.40;;;16.80;99.90;;;;;;20795690;28;20054;-46
2021/10/15 14:18:44;;;;;;;4.25;0.70;;;16.90;99.90;;;;;;20890745;28;20039;-45
2021/10/15 14:28:46;;;;;;;6.80;1.35;;;16.70;99.90;;;;;;20897372;28;20765;-45
2021/10/15 14:38:47;;;;;;;6.93;0.73;;;15.50;99.90;;;;;;20859332;28;21545;-45
2021/10/15 14:48:48;;;;;;;0.73;0.13;;;14.80;99.90;;;;;;20886422;28;20040;-45
2021/10/15 14:58:50;;;;;;;1.10;0.35;;;15.10;99.90;;;;;;20858212;28;20049;-45
2021/10/15 15:08:51;;;;;;;0.77;0.22;;;15.10;99.90;;;;;;20878624;28;20040;-45
2021/10/15 15:18:52;;;;;;;2.25;0.40;;;14.90;99.90;;;;;;20883567;28;20044;-45
2021/10/15 15:28:54;;;;;;;1.10;0.30;;;14.40;99.90;;;;;;20868844;28;20463;-45
2021/10/15 15:38:55;;;;;;;1.65;0.70;;;13.90;99.90;;;;;;20885192;28;20530;-45
2021/10/15 15:48:56;;;;;;;3.63;0.20;;;13.50;99.90;;;;;;20873998;28;20055;-45
2021/10/15 15:58:58;;;;;;;0.95;0.30;;;13.20;99.90;;;;;;20882024;28;20045;-45
2021/10/15 16:08:59;;;;;;;3.17;0.38;;;13.00;99.90;;;;;;20790688;28;20056;-45
2021/10/15 16:19:01;;;;;;;1.15;0.17;;;12.80;99.90;;;;;;20786656;28;20048;-45
2021/10/15 16:29:03;;;;;;;0.75;0.30;;;12.70;99.90;;;;;;20800150;28;20499;-45
2021/10/15 16:39:04;;;;;;;7.18;1.02;;;12.30;99.90;;;;;;20802469;28;20042;-45
2021/10/15 16:49:05;;;;;;;2.15;0.95;;;12.10;99.90;;;;;;20786794;28;20381;-45
2021/10/15 16:59:06;;;;;;;1.10;0.30;;;11.70;99.90;;;;;;20800222;28;20052;-45
2021/10/15 17:09:08;;;;;;;2.63;0.50;;;11.20;99.90;;;;;;20788647;28;20038;-45
2021/10/15 17:19:09;;;;;;;2.05;0.60;;;11.20;99.90;;;;;;20760937;28;20089;-45
2021/10/15 17:29:11;;;;;;;1.33;0.45;;;11.10;99.90;;;;;;20784706;28;20056;-45
2021/10/15 17:39:14;;;;;;;4.32;1.10;;;10.90;99.90;;;;;;20787620;28;20044;-45
2021/10/15 17:49:15;;;;;;;2.53;0.60;;;10.70;99.90;;;;;;20808880;28;20398;-45
2021/10/15 17:59:16;;;;;;;3.28;1.00;;;10.60;99.90;;;;;;20796638;28;20048;-45
2021/10/15 18:09:17;;;;;;;2.80;1.05;;;10.30;99.90;;;;;;20927419;28;20033;-45
2021/10/15 18:19:19;;;;;;;2.75;1.00;;;10.10;99.90;;;;;;20945020;28;20045;-45
2021/10/15 18:29:20;;;;;;;6.88;1.90;;;10.10;99.90;;;;;;20909548;28;20033;-45
2021/10/15 18:39:21;;;;;;;2.75;1.20;;;9.70;99.90;;;;;;20911612;28;20049;-45
2021/10/15 18:49:23;;;;;;;5.18;1.27;;;9.80;99.90;;;;;;20885314;28;20033;-45
2021/10/15 18:59:25;;;;;;;5.28;1.67;;;9.90;99.90;;;;;;20894722;28;20048;-45
2021/10/15 19:09:28;;;;;;;5.43;1.88;;;10.10;99.90;;;;;;20880771;28;20041;-45
2021/10/15 19:19:29;;;;;;;9.75;1.98;;;10.10;99.90;;;;;;20895667;28;20505;-45
2021/10/15 19:29:31;;;;;;;4.40;2.15;;;10.10;99.90;;;;;;20898238;28;20612;-45
2021/10/15 19:39:32;;;;;;;7.00;3.55;;;10.10;99.90;;;;;;20892424;28;20059;-45
2021/10/15 19:49:33;;;;;;;9.32;3.13;;;10.20;99.90;;;;;;20887368;28;20048;-45
2021/10/15 19:59:37;;;;;;;7.30;2.35;;;10.10;99.90;;;;;;20886534;28;20501;-45
2021/10/15 20:09:38;;;;;;;5.88;2.63;;;10.00;99.90;;;;;;20912330;28;20037;-45
2021/10/15 20:19:39;;;;;;;7.18;2.47;;;9.80;99.90;;;;;;20900625;28;20048;-45
2021/10/15 20:29:43;;;;;;;6.53;2.70;;;9.60;99.90;;;;;;20901673;28;20037;-45
2021/10/15 20:39:44;;;;;;;18.98;6.40;;;9.30;99.90;;;;;;20898376;28;20060;-45
2021/10/15 20:49:45;;;;;;;14.90;6.80;;;9.20;99.90;;;;;;20904633;28;20037;-45
2021/10/15 20:59:46;;;;;;;14.75;5.63;;;9.10;99.90;;;;;;20901804;28;20041;-45
2021/10/15 21:09:47;;;;;;;9.13;4.38;;;9.20;99.90;;;;;;20802666;28;20508;-45
2021/10/15 21:19:48;;;;;;;8.45;3.22;;;9.20;99.90;;;;;;20794633;28;20057;-45
2021/10/15 21:29:49;;;;;;;5.72;3.10;;;9.30;99.90;;;;;;20793186;28;20116;-45
2021/10/15 21:39:52;;;;;;;17.42;3.83;;;9.40;99.90;;;;;;20800788;28;20614;-45
2021/10/15 21:49:53;;;;;;;7.30;2.15;;;9.50;99.90;;;;;;20797245;28;20045;-45
2021/10/15 21:59:54;;;;;;;8.48;2.13;;;9.60;99.90;;;;;;20799890;28;20048;-45
2021/10/15 22:09:55;;;;;;;5.97;1.95;;;9.60;99.90;;;;;;20849449;28;20048;-45
2021/10/15 22:19:56;;;;;;;9.85;2.35;;;9.30;99.90;;;;;;20854802;28;20049;-45
2021/10/15 22:29:58;;;;;;;3.30;1.58;;;9.20;99.90;;;;;;20849099;28;20060;-45
2021/10/15 22:39:59;;;;;;;2.63;1.13;;;9.10;99.90;;;;;;20861195;28;20050;-45
2021/10/15 22:50:00;;;;;;;10.93;3.08;;;9.20;99.90;;;;;;20817111;28;20041;-45
2021/10/15 23:00:14;;;;;;;6.30;1.75;;;9.20;99.90;;;;;;20840562;28;20049;-45
2021/10/15 23:10:16;;;;;;;7.65;2.10;;;9.20;99.90;;;;;;20856721;28;20099;-45
2021/10/15 23:20:17;;;;;;;5.70;1.52;;;9.30;99.90;;;;;;20853663;28;20478;-45
2021/10/15 23:30:18;;;;;;;5.60;2.15;;;9.40;99.90;;;;;;20843516;28;20063;-45
2021/10/15 23:40:20;;;;;;;3.60;1.48;;;9.50;99.90;;;;;;20863932;28;20040;-45
2021/10/15 23:50:21;;;;;;;5.28;1.17;;;9.50;99.90;;;;;;20847463;28;20425;-45
